createdAt,value
2023-02-17T00:00:22.122Z,0
2023-02-17T00:01:22.758Z,0
2023-02-17T00:02:23.385Z,0
2023-02-17T00:03:24.053Z,0
2023-02-17T00:04:24.706Z,0
2023-02-17T00:05:25.352Z,0
2023-02-17T00:06:25.963Z,0
2023-02-17T00:07:26.556Z,0
2023-02-17T00:08:27.156Z,0
2023-02-17T00:09:27.755Z,0
2023-02-17T00:10:28.409Z,0
2023-02-17T00:11:29.017Z,0
2023-02-17T00:12:29.617Z,0
2023-02-17T00:13:30.262Z,0
2023-02-17T00:14:30.862Z,0
2023-02-17T00:15:31.598Z,0
2023-02-17T00:16:33.095Z,0
2023-02-17T00:17:33.692Z,0
2023-02-17T00:18:34.296Z,0
2023-02-17T00:19:34.901Z,0
2023-02-17T00:20:35.509Z,0
2023-02-17T00:21:36.164Z,0
2023-02-17T00:22:36.769Z,0
2023-02-17T00:23:37.365Z,0
2023-02-17T00:24:37.969Z,0
2023-02-17T00:25:38.582Z,0
2023-02-17T00:26:39.168Z,0
2023-02-17T00:27:39.768Z,0
2023-02-17T00:28:40.364Z,0
2023-02-17T00:29:40.969Z,0
2023-02-17T00:30:41.626Z,0
2023-02-17T00:31:43.407Z,0
2023-02-17T00:32:44.105Z,0
2023-02-17T00:33:44.708Z,0
2023-02-17T00:34:45.363Z,0
2023-02-17T00:35:45.963Z,0
2023-02-17T00:50:01.598Z,0
2023-02-17T00:51:02.194Z,0
2023-02-17T00:52:02.798Z,0
2023-02-17T00:53:03.398Z,0
2023-02-17T00:54:03.994Z,0
2023-02-17T00:55:04.591Z,0
2023-02-17T00:56:05.512Z,0
2023-02-17T01:22:07.565Z,0
2023-02-17T01:24:46.445Z,0
2023-02-17T01:28:55.167Z,0
2023-02-17T01:29:55.786Z,0
2023-02-17T01:30:56.427Z,0
2023-02-17T01:31:57.078Z,0
2023-02-17T01:32:57.937Z,0
2023-02-17T01:33:58.537Z,0
2023-02-17T01:35:12.454Z,0
2023-02-17T01:36:13.051Z,0
2023-02-17T01:37:13.659Z,0
2023-02-17T01:38:14.846Z,0
2023-02-17T01:39:40.035Z,0
2023-02-17T01:41:13.208Z,0
2023-02-17T01:43:14.429Z,0
2023-02-17T01:44:15.021Z,0
2023-02-17T01:46:16.310Z,0
2023-02-17T01:47:16.908Z,0
2023-02-17T01:48:17.503Z,0
2023-02-17T01:49:18.956Z,0
2023-02-17T01:55:45.886Z,0
2023-02-17T01:56:46.490Z,0
2023-02-17T01:57:47.088Z,0
2023-02-17T01:59:00.400Z,0
2023-02-17T02:00:01.054Z,0
2023-02-17T02:01:14.404Z,0
2023-02-17T02:02:28.450Z,0
2023-02-17T02:03:29.039Z,0
2023-02-17T02:04:29.706Z,0
2023-02-17T02:05:30.315Z,0
2023-02-17T02:07:56.904Z,0
2023-02-17T02:08:57.500Z,0
2023-02-17T02:09:58.104Z,0
2023-02-17T02:13:08.779Z,0
2023-02-17T02:17:29.399Z,0
2023-02-17T02:18:30.815Z,0
2023-02-17T02:19:51.986Z,0
2023-02-17T02:21:05.398Z,0
2023-02-17T02:22:19.425Z,0
2023-02-17T02:23:20.023Z,0
2023-02-17T02:24:20.624Z,0
2023-02-17T02:26:06.173Z,0
2023-02-17T02:27:21.214Z,0
2023-02-17T02:28:21.822Z,0
2023-02-17T02:29:38.997Z,0
2023-02-17T02:30:39.727Z,0
2023-02-17T02:31:40.366Z,0
2023-02-17T02:32:40.959Z,0
2023-02-17T02:34:10.146Z,0
2023-02-17T02:35:10.785Z,0
2023-02-17T02:36:11.741Z,0
2023-02-17T02:37:12.376Z,0
2023-02-17T02:38:12.963Z,0
2023-02-17T02:39:13.619Z,0
2023-02-17T02:40:14.215Z,0
2023-02-17T02:41:14.812Z,0
2023-02-17T02:42:15.405Z,0
2023-02-17T02:43:16.013Z,0
2023-02-17T02:44:16.616Z,0
2023-02-17T02:45:17.217Z,0
2023-02-17T02:46:31.277Z,0
2023-02-17T02:47:45.285Z,0
2023-02-17T02:48:45.892Z,0
2023-02-17T02:49:46.568Z,0
2023-02-17T02:50:47.236Z,0
2023-02-17T02:51:47.833Z,0
2023-02-17T02:53:01.269Z,0
2023-02-17T02:54:15.280Z,0
2023-02-17T02:56:08.490Z,0
2023-02-17T02:57:09.137Z,0
2023-02-17T02:58:09.730Z,0
2023-02-17T02:59:11.184Z,0
2023-02-17T03:00:12.395Z,0
2023-02-17T03:01:26.725Z,0
2023-02-17T03:02:27.359Z,0
2023-02-17T03:03:28.011Z,0
2023-02-17T03:04:28.606Z,0
2023-02-17T03:05:29.203Z,0
2023-02-17T03:06:29.854Z,0
2023-02-17T03:08:07.849Z,0
2023-02-17T03:09:08.443Z,0
2023-02-17T03:10:09.041Z,0
2023-02-17T03:12:51.658Z,0
2023-02-17T03:16:10.877Z,0
2023-02-17T03:17:28.041Z,0
2023-02-17T03:18:28.642Z,0
2023-02-17T03:19:57.818Z,0
2023-02-17T03:22:52.197Z,0
2023-02-17T03:23:52.808Z,0
2023-02-17T03:27:32.840Z,0
2023-02-17T03:31:32.814Z,0
2023-02-17T03:32:33.386Z,0
2023-02-17T03:36:49.484Z,0
2023-02-17T03:37:50.192Z,0
2023-02-17T03:39:31.399Z,0
2023-02-17T03:41:00.657Z,0
2023-02-17T03:42:01.264Z,0
2023-02-17T03:43:01.858Z,0
2023-02-17T03:44:02.464Z,0
2023-02-17T03:45:03.069Z,0
2023-02-17T03:46:03.749Z,0
2023-02-17T03:47:05.260Z,0
2023-02-17T03:48:05.903Z,0
2023-02-17T03:49:06.499Z,0
2023-02-17T03:50:07.111Z,0
2023-02-17T03:51:07.691Z,0
2023-02-17T03:52:08.286Z,0
2023-02-17T03:53:08.892Z,0
2023-02-17T03:54:09.491Z,0
2023-02-17T03:55:10.094Z,0
2023-02-17T03:56:10.690Z,0
2023-02-17T03:57:11.293Z,0
2023-02-17T03:58:11.902Z,0
2023-02-17T03:59:12.579Z,0
2023-02-17T04:00:13.165Z,0
2023-02-17T04:01:14.613Z,0
2023-02-17T04:02:15.216Z,0
2023-02-17T04:03:15.874Z,0
2023-02-17T04:04:16.499Z,0
2023-02-17T04:05:17.109Z,0
2023-02-17T04:06:17.704Z,0
2023-02-17T04:07:18.299Z,0
2023-02-17T04:08:18.905Z,0
2023-02-17T04:09:19.621Z,0
2023-02-17T04:10:20.280Z,0
2023-02-17T04:11:20.892Z,0
2023-02-17T04:12:21.500Z,0
2023-02-17T04:13:22.902Z,0
2023-02-17T04:14:23.500Z,0
2023-02-17T04:15:24.133Z,0
2023-02-17T04:16:24.739Z,0
2023-02-17T04:17:25.344Z,0
2023-02-17T04:18:25.945Z,0
2023-02-17T04:19:26.541Z,0
2023-02-17T04:20:27.146Z,0
2023-02-17T04:21:27.742Z,0
2023-02-17T04:22:28.345Z,0
2023-02-17T04:23:28.942Z,0
2023-02-17T04:24:29.543Z,0
2023-02-17T04:25:30.146Z,0
2023-02-17T04:26:30.751Z,0
2023-02-17T04:27:31.352Z,0
2023-02-17T04:28:31.956Z,0
2023-02-17T04:29:32.557Z,0
2023-02-17T04:30:33.202Z,0
2023-02-17T04:31:33.958Z,0
2023-02-17T04:32:34.631Z,0
2023-02-17T04:33:35.228Z,0
2023-02-17T04:34:35.821Z,0
2023-02-17T04:35:36.429Z,0
2023-02-17T04:36:37.012Z,0
2023-02-17T04:37:37.610Z,0
2023-02-17T04:38:38.202Z,0
2023-02-17T04:39:38.808Z,0
2023-02-17T04:40:39.480Z,0
2023-02-17T04:41:40.089Z,0
2023-02-17T04:42:40.759Z,0
2023-02-17T04:43:41.507Z,0
2023-02-17T04:44:42.198Z,0
2023-02-17T04:45:42.886Z,0
2023-02-17T04:46:43.477Z,0
2023-02-17T04:47:44.882Z,0
2023-02-17T04:48:45.485Z,0
2023-02-17T04:49:46.090Z,0
2023-02-17T04:50:46.685Z,0
2023-02-17T04:51:48.081Z,0
2023-02-17T04:52:48.685Z,0
2023-02-17T04:53:49.291Z,0
2023-02-17T04:54:50.743Z,0
2023-02-17T04:55:51.343Z,0
2023-02-17T04:56:51.937Z,0
2023-02-17T04:57:52.536Z,0
2023-02-17T04:58:53.128Z,0
2023-02-17T04:59:53.729Z,0
2023-02-17T05:00:54.326Z,0
2023-02-17T05:01:55.843Z,0
2023-02-17T05:02:56.500Z,0
2023-02-17T05:03:57.104Z,0
2023-02-17T05:04:57.760Z,0
2023-02-17T05:05:58.437Z,0
2023-02-17T05:06:59.036Z,0
2023-02-17T05:07:59.637Z,0
2023-02-17T05:09:00.233Z,0
2023-02-17T05:10:00.841Z,0
2023-02-17T05:11:01.443Z,0
2023-02-17T05:12:02.151Z,0
2023-02-17T05:13:02.755Z,0
2023-02-17T05:14:03.373Z,0
2023-02-17T05:15:04.073Z,0
2023-02-17T05:16:05.164Z,0
2023-02-17T05:17:05.945Z,0
2023-02-17T05:18:06.535Z,0
2023-02-17T05:19:07.141Z,0
2023-02-17T05:20:07.736Z,0
2023-02-17T05:21:08.338Z,0
2023-02-17T05:22:08.946Z,0
2023-02-17T05:23:09.609Z,0
2023-02-17T05:24:10.212Z,0
2023-02-17T05:25:10.816Z,0
2023-02-17T05:26:11.408Z,0
2023-02-17T05:27:11.998Z,0
2023-02-17T05:28:12.595Z,0
2023-02-17T05:29:13.262Z,0
2023-02-17T05:30:13.912Z,0
2023-02-17T05:31:14.610Z,0
2023-02-17T05:32:15.259Z,0
2023-02-17T05:33:15.849Z,0
2023-02-17T05:34:16.452Z,0
2023-02-17T05:35:17.057Z,0
2023-02-17T05:36:17.651Z,0
2023-02-17T05:37:18.252Z,0
2023-02-17T05:38:18.844Z,0
2023-02-17T05:39:19.450Z,0
2023-02-17T05:40:20.054Z,0
2023-02-17T05:41:20.651Z,0
2023-02-17T05:42:21.264Z,0
2023-02-17T05:43:21.892Z,0
2023-02-17T05:44:22.487Z,0
2023-02-17T05:45:23.086Z,0
2023-02-17T05:46:23.720Z,0
2023-02-17T05:47:26.117Z,0
2023-02-17T05:48:26.106Z,0
2023-02-17T05:49:26.699Z,0
2023-02-17T05:50:28.097Z,0
2023-02-17T05:51:28.714Z,0
2023-02-17T05:52:29.295Z,0
2023-02-17T05:53:29.900Z,0
2023-02-17T05:54:30.580Z,0
2023-02-17T05:55:31.249Z,0
2023-02-17T05:56:31.847Z,0
2023-02-17T05:57:32.503Z,0
2023-02-17T05:58:33.104Z,0
2023-02-17T05:59:33.707Z,0
2023-02-17T06:00:34.307Z,0
2023-02-17T06:01:37.124Z,0
2023-02-17T06:02:36.488Z,0
2023-02-17T06:03:37.092Z,0
2023-02-17T06:04:37.938Z,0
2023-02-17T06:05:38.661Z,0
2023-02-17T06:06:39.347Z,0
2023-02-17T06:07:39.998Z,0
2023-02-17T06:08:40.604Z,0
2023-02-17T06:09:41.196Z,0
2023-02-17T06:10:42.635Z,0
2023-02-17T06:11:43.231Z,0
2023-02-17T06:12:43.849Z,0
2023-02-17T06:13:44.434Z,0
2023-02-17T06:14:45.029Z,0
2023-02-17T06:15:45.642Z,0
2023-02-17T06:16:46.226Z,0
2023-02-17T06:17:46.828Z,0
2023-02-17T06:18:48.291Z,0
2023-02-17T06:19:48.888Z,0
2023-02-17T06:20:49.494Z,0
2023-02-17T06:21:50.094Z,0
2023-02-17T06:22:50.704Z,0
2023-02-17T06:23:51.374Z,0
2023-02-17T06:24:52.073Z,0
2023-02-17T06:25:52.655Z,0
2023-02-17T06:26:53.259Z,0
2023-02-17T06:27:53.855Z,0
2023-02-17T06:28:54.456Z,0
2023-02-17T06:29:55.091Z,0
2023-02-17T06:30:56.574Z,0
2023-02-17T06:31:57.258Z,0
2023-02-17T06:32:57.919Z,0
2023-02-17T06:33:58.563Z,0
2023-02-17T06:34:59.265Z,0
2023-02-17T06:35:59.862Z,0
2023-02-17T06:37:00.475Z,0
2023-02-17T06:38:01.140Z,0
2023-02-17T06:39:01.728Z,0
2023-02-17T06:40:02.344Z,0
2023-02-17T06:41:02.929Z,0
2023-02-17T06:42:03.563Z,0
2023-02-17T06:43:04.157Z,0
2023-02-17T06:44:04.760Z,0
2023-02-17T06:45:05.369Z,0
2023-02-17T06:46:06.433Z,0
2023-02-17T06:47:07.244Z,0
2023-02-17T06:48:07.859Z,0
2023-02-17T06:49:08.444Z,0
2023-02-17T06:50:09.039Z,0
2023-02-17T06:51:09.644Z,0
2023-02-17T06:52:10.253Z,0
2023-02-17T06:53:10.845Z,0
2023-02-17T06:54:11.443Z,0
2023-02-17T06:55:12.041Z,0
2023-02-17T06:56:12.639Z,0
2023-02-17T06:57:13.229Z,0
2023-02-17T06:58:13.824Z,0
2023-02-17T06:59:14.484Z,0
2023-02-17T07:00:15.138Z,0
2023-02-17T07:01:15.751Z,0
2023-02-17T07:02:16.392Z,0
2023-02-17T07:03:17.012Z,0
2023-02-17T07:04:17.621Z,0
2023-02-17T07:05:18.219Z,0
2023-02-17T07:06:18.823Z,0
2023-02-17T07:07:19.427Z,0
2023-02-17T07:08:20.027Z,0
2023-02-17T07:09:20.641Z,0
2023-02-17T07:10:21.300Z,0
2023-02-17T07:11:21.956Z,0
2023-02-17T07:12:22.553Z,0
2023-02-17T07:13:23.228Z,0
2023-02-17T07:14:25.009Z,0
2023-02-17T07:15:25.428Z,0
2023-02-17T07:16:26.052Z,0
2023-02-17T07:17:26.647Z,0
2023-02-17T07:18:27.237Z,0
2023-02-17T07:19:27.837Z,0
2023-02-17T07:20:28.504Z,0
2023-02-17T07:21:29.093Z,0
2023-02-17T07:22:29.698Z,0
2023-02-17T07:23:30.306Z,0
2023-02-17T07:24:30.906Z,0
2023-02-17T07:25:31.492Z,0
2023-02-17T07:26:32.091Z,0
2023-02-17T07:27:32.686Z,0
2023-02-17T07:28:33.278Z,0
2023-02-17T07:29:33.884Z,0
2023-02-17T07:30:34.520Z,0
2023-02-17T07:31:36.012Z,0
2023-02-17T07:32:36.637Z,0
2023-02-17T07:33:37.308Z,0
2023-02-17T07:34:37.968Z,0
2023-02-17T07:35:38.560Z,0
2023-02-17T07:36:39.206Z,0
2023-02-17T07:37:39.809Z,0
2023-02-17T07:38:40.409Z,0
2023-02-17T07:39:41.054Z,0
2023-02-17T07:40:42.451Z,0
2023-02-17T07:41:43.105Z,0
2023-02-17T07:42:43.764Z,0
2023-02-17T07:43:44.367Z,0
2023-02-17T07:44:44.969Z,0
2023-02-17T07:45:45.653Z,0
2023-02-17T07:46:46.243Z,0
2023-02-17T07:47:46.835Z,0
2023-02-17T07:48:47.430Z,0
2023-02-17T07:49:48.040Z,0
2023-02-17T07:50:48.636Z,0
2023-02-17T07:51:49.231Z,0
2023-02-17T07:52:49.832Z,0
2023-02-17T07:53:50.434Z,0
2023-02-17T07:54:51.033Z,0
2023-02-17T07:55:51.638Z,0
2023-02-17T07:56:52.237Z,0
2023-02-17T07:57:52.828Z,0
2023-02-17T07:58:53.431Z,0
2023-02-17T07:59:54.037Z,0
2023-02-17T08:00:54.631Z,0
2023-02-17T08:01:55.253Z,0
2023-02-17T08:02:55.911Z,0
2023-02-17T08:03:56.541Z,0
2023-02-17T08:04:57.148Z,0
2023-02-17T08:05:57.747Z,0
2023-02-17T08:06:58.350Z,0
2023-02-17T08:07:59.005Z,0
2023-02-17T08:08:59.609Z,0
2023-02-17T08:10:00.227Z,0
2023-02-17T08:11:00.816Z,0
2023-02-17T08:12:01.422Z,0
2023-02-17T08:13:02.872Z,0
2023-02-17T08:14:03.474Z,0
2023-02-17T08:15:04.070Z,0
2023-02-17T08:16:05.145Z,0
2023-02-17T08:17:05.982Z,0
2023-02-17T08:18:06.587Z,0
2023-02-17T08:19:07.676Z,0
2023-02-17T08:20:09.320Z,0
2023-02-17T08:21:09.985Z,0
2023-02-17T08:22:10.608Z,0
2023-02-17T08:23:11.208Z,4
2023-02-17T08:24:11.818Z,8
2023-02-17T08:25:12.475Z,8
2023-02-17T08:26:13.066Z,8
2023-02-17T08:27:13.658Z,8
2023-02-17T08:28:14.283Z,8
2023-02-17T08:29:14.866Z,4
2023-02-17T08:30:15.511Z,4
2023-02-17T08:31:16.249Z,4
2023-02-17T08:32:16.956Z,8
2023-02-17T08:33:17.616Z,8
2023-02-17T08:34:18.264Z,8
2023-02-17T08:35:18.900Z,8
2023-02-17T08:36:19.479Z,8
2023-02-17T08:37:20.092Z,8
2023-02-17T08:38:20.671Z,8
2023-02-17T08:39:21.355Z,8
2023-02-17T08:40:21.935Z,8
2023-02-17T08:41:22.543Z,8
2023-02-17T08:42:23.146Z,8
2023-02-17T08:43:23.773Z,12
2023-02-17T08:44:24.502Z,8
2023-02-17T08:45:25.107Z,8
2023-02-17T08:46:26.658Z,8
2023-02-17T08:47:27.283Z,8
2023-02-17T08:48:27.924Z,8
2023-02-17T08:49:28.571Z,8
2023-02-17T08:50:29.198Z,8
2023-02-17T08:51:29.821Z,8
2023-02-17T08:52:30.402Z,8
2023-02-17T08:53:31.046Z,8
2023-02-17T08:54:31.629Z,8
2023-02-17T08:55:44.113Z,8
2023-02-17T08:56:33.860Z,12
2023-02-17T08:57:34.487Z,12
2023-02-17T08:58:35.200Z,12
2023-02-17T08:59:35.886Z,12
2023-02-17T09:00:36.468Z,12
2023-02-17T09:01:37.082Z,8
2023-02-17T09:02:37.703Z,8
2023-02-17T09:03:38.326Z,8
2023-02-17T09:04:38.972Z,8
2023-02-17T09:05:39.560Z,8
2023-02-17T09:06:40.164Z,8
2023-02-17T09:07:40.797Z,8
2023-02-17T09:08:41.435Z,8
2023-02-17T09:09:42.072Z,8
2023-02-17T09:10:42.666Z,12
2023-02-17T09:11:43.291Z,12
2023-02-17T09:12:44.006Z,12
2023-02-17T09:13:44.590Z,12
2023-02-17T09:14:45.185Z,12
2023-02-17T09:15:45.816Z,12
2023-02-17T09:16:46.452Z,12
2023-02-17T09:17:47.079Z,12
2023-02-17T09:18:47.684Z,12
2023-02-17T09:19:48.364Z,12
2023-02-17T09:20:49.074Z,12
2023-02-17T09:21:49.688Z,8
2023-02-17T09:22:51.497Z,8
2023-02-17T09:23:51.933Z,8
2023-02-17T09:24:52.532Z,12
2023-02-17T09:25:53.152Z,12
2023-02-17T09:26:53.751Z,12
2023-02-17T09:27:54.333Z,12
2023-02-17T09:28:54.936Z,12
2023-02-17T09:29:55.610Z,12
2023-02-17T09:30:56.378Z,12
2023-02-17T09:31:57.120Z,12
2023-02-17T09:32:57.761Z,12
2023-02-17T09:33:58.375Z,12
2023-02-17T09:34:58.977Z,16
2023-02-17T09:35:59.615Z,16
2023-02-17T09:37:00.992Z,12
2023-02-17T09:38:01.661Z,12
2023-02-17T09:39:02.314Z,12
2023-02-17T09:40:02.915Z,16
2023-02-17T09:41:03.571Z,16
2023-02-17T09:42:04.247Z,16
2023-02-17T09:43:04.852Z,12
2023-02-17T09:44:05.456Z,16
2023-02-17T09:45:06.065Z,16
2023-02-17T09:46:07.098Z,16
2023-02-17T09:47:07.572Z,16
2023-02-17T09:48:08.271Z,16
2023-02-17T09:49:08.857Z,12
2023-02-17T09:50:09.558Z,12
2023-02-17T09:51:12.497Z,12
2023-02-17T09:52:11.785Z,16
2023-02-17T09:53:12.446Z,16
2023-02-17T09:54:13.850Z,20
2023-02-17T09:55:14.515Z,16
2023-02-17T09:56:15.103Z,16
2023-02-17T09:57:15.772Z,16
2023-02-17T09:58:16.472Z,20
2023-02-17T09:59:17.075Z,20
2023-02-17T10:00:17.666Z,16
2023-02-17T10:01:18.281Z,16
2023-02-17T10:02:18.968Z,20
2023-02-17T10:03:19.615Z,20
2023-02-17T10:04:20.401Z,20
2023-02-17T10:05:20.983Z,16
2023-02-17T10:06:21.660Z,20
2023-02-17T10:07:22.253Z,20
2023-02-17T10:08:22.940Z,20
2023-02-17T10:09:23.551Z,20
2023-02-17T10:10:24.141Z,20
2023-02-17T10:11:24.746Z,20
2023-02-17T10:12:25.458Z,20
2023-02-17T10:13:26.041Z,24
2023-02-17T10:14:26.671Z,20
2023-02-17T10:15:27.286Z,20
2023-02-17T10:16:28.009Z,24
2023-02-17T10:17:28.638Z,24
2023-02-17T10:18:29.349Z,20
2023-02-17T10:19:30.002Z,24
2023-02-17T10:20:30.592Z,24
2023-02-17T10:21:31.245Z,24
2023-02-17T10:22:31.834Z,24
2023-02-17T10:23:32.438Z,24
2023-02-17T10:24:33.017Z,24
2023-02-17T10:25:33.623Z,24
2023-02-17T10:26:34.234Z,24
2023-02-17T10:27:35.023Z,28
2023-02-17T10:28:35.646Z,28
2023-02-17T10:29:36.317Z,24
2023-02-17T10:30:37.009Z,28
2023-02-17T10:31:37.823Z,28
2023-02-17T10:32:38.512Z,28
2023-02-17T10:33:39.134Z,28
2023-02-17T10:34:39.772Z,28
2023-02-17T10:35:40.380Z,28
2023-02-17T10:36:41.019Z,32
2023-02-17T10:37:41.610Z,28
2023-02-17T10:38:42.218Z,28
2023-02-17T10:39:42.823Z,32
2023-02-17T10:40:43.429Z,28
2023-02-17T10:41:44.023Z,32
2023-02-17T10:42:44.626Z,28
2023-02-17T10:43:45.286Z,28
2023-02-17T10:44:45.983Z,32
2023-02-17T10:45:46.620Z,28
2023-02-17T10:46:47.298Z,28
2023-02-17T10:47:47.897Z,32
2023-02-17T10:48:48.509Z,32
2023-02-17T10:49:49.137Z,32
2023-02-17T10:50:49.742Z,32
2023-02-17T10:51:50.328Z,28
2023-02-17T10:52:51.054Z,28
2023-02-17T10:53:51.726Z,28
2023-02-17T10:54:52.382Z,28
2023-02-17T10:55:53.040Z,32
2023-02-17T10:56:53.637Z,28
2023-02-17T10:57:54.257Z,28
2023-02-17T10:58:54.886Z,28
2023-02-17T10:59:56.346Z,28
2023-02-17T11:00:57.036Z,28
2023-02-17T11:01:57.675Z,28
2023-02-17T11:02:58.275Z,28
2023-02-17T11:03:58.878Z,24
2023-02-17T11:04:59.516Z,28
2023-02-17T11:06:00.136Z,24
2023-02-17T11:07:00.765Z,24
2023-02-17T11:08:01.384Z,24
2023-02-17T11:09:02.042Z,24
2023-02-17T11:10:02.654Z,24
2023-02-17T11:11:03.300Z,20
2023-02-17T11:12:03.905Z,24
2023-02-17T11:13:04.530Z,20
2023-02-17T11:14:05.106Z,20
2023-02-17T11:15:05.704Z,20
2023-02-17T11:16:06.734Z,24
2023-02-17T11:17:07.499Z,20
2023-02-17T11:18:08.422Z,20
2023-02-17T11:19:09.172Z,20
2023-02-17T11:20:10.159Z,16
2023-02-17T11:21:10.891Z,16
2023-02-17T11:22:13.012Z,16
2023-02-17T11:23:13.188Z,16
2023-02-17T11:24:13.800Z,16
2023-02-17T11:25:14.397Z,16
2023-02-17T11:26:14.998Z,16
2023-02-17T11:27:15.603Z,16
2023-02-17T11:28:16.250Z,12
2023-02-17T11:29:16.847Z,12
2023-02-17T11:30:17.490Z,16
2023-02-17T11:31:18.124Z,16
2023-02-17T11:32:18.759Z,16
2023-02-17T11:33:19.372Z,16
2023-02-17T11:34:19.975Z,16
2023-02-17T11:35:20.604Z,16
2023-02-17T11:36:21.190Z,16
2023-02-17T11:37:21.829Z,16
2023-02-17T11:38:22.478Z,16
2023-02-17T11:39:23.128Z,12
2023-02-17T11:40:26.073Z,12
2023-02-17T11:41:25.323Z,12
2023-02-17T11:42:25.913Z,12
2023-02-17T11:43:26.517Z,12
2023-02-17T11:44:27.113Z,12
2023-02-17T11:45:27.770Z,12
2023-02-17T11:46:28.360Z,12
2023-02-17T11:47:28.963Z,12
2023-02-17T11:48:29.618Z,12
2023-02-17T11:49:30.230Z,12
2023-02-17T11:50:40.893Z,16
2023-02-17T11:51:32.493Z,16
2023-02-17T11:52:33.105Z,16
2023-02-17T11:53:33.744Z,16
2023-02-17T11:54:34.339Z,16
2023-02-17T11:55:34.935Z,16
2023-02-17T11:56:35.551Z,16
2023-02-17T11:57:36.206Z,16
2023-02-17T11:58:36.923Z,16
2023-02-17T11:59:37.519Z,16
2023-02-17T12:00:38.121Z,16
2023-02-17T12:01:38.767Z,16
2023-02-17T12:02:39.372Z,16
2023-02-17T12:03:40.038Z,16
2023-02-17T12:04:40.737Z,16
2023-02-17T12:05:41.400Z,16
2023-02-17T12:06:42.007Z,16
2023-02-17T12:07:42.601Z,16
2023-02-17T12:08:44.188Z,16
2023-02-17T12:09:44.977Z,16
2023-02-17T12:10:45.581Z,16
2023-02-17T12:11:46.177Z,16
2023-02-17T12:12:46.840Z,16
2023-02-17T12:13:47.458Z,16
2023-02-17T12:14:48.042Z,16
2023-02-17T12:15:48.654Z,16
2023-02-17T12:16:49.253Z,16
2023-02-17T12:17:49.838Z,16
2023-02-17T12:18:50.434Z,16
2023-02-17T12:19:51.037Z,16
2023-02-17T12:20:51.624Z,16
2023-02-17T12:21:52.221Z,16
2023-02-17T12:22:52.826Z,16
2023-02-17T12:23:53.430Z,16
2023-02-17T12:24:54.026Z,16
2023-02-17T12:25:54.624Z,16
2023-02-17T12:26:55.219Z,16
2023-02-17T12:27:55.822Z,16
2023-02-17T12:28:56.417Z,16
2023-02-17T12:29:57.052Z,16
2023-02-17T12:30:57.934Z,16
2023-02-17T12:31:58.759Z,16
2023-02-17T12:32:59.456Z,16
2023-02-17T12:34:00.108Z,16
2023-02-17T12:35:01.545Z,16
2023-02-17T12:36:02.152Z,12
2023-02-17T12:37:02.754Z,12
2023-02-17T12:38:03.352Z,16
2023-02-17T12:39:03.961Z,16
2023-02-17T12:40:04.567Z,12
2023-02-17T12:41:05.172Z,12
2023-02-17T12:42:05.763Z,12
2023-02-17T12:43:06.366Z,12
2023-02-17T12:44:06.968Z,12
2023-02-17T12:45:07.559Z,12
2023-02-17T12:46:08.605Z,12
2023-02-17T12:47:08.838Z,12
2023-02-17T12:48:09.437Z,12
2023-02-17T12:49:10.044Z,12
2023-02-17T12:50:10.651Z,16
2023-02-17T12:51:11.258Z,12
2023-02-17T12:52:11.900Z,12
2023-02-17T12:53:12.505Z,16
2023-02-17T12:54:13.110Z,16
2023-02-17T12:55:14.705Z,16
2023-02-17T12:56:15.312Z,16
2023-02-17T12:57:15.909Z,16
2023-02-17T12:58:16.521Z,16
2023-02-17T12:59:17.120Z,16
2023-02-17T13:00:17.724Z,16
2023-02-17T13:01:18.334Z,16
2023-02-17T13:02:18.960Z,16
2023-02-17T13:03:19.595Z,16
2023-02-17T13:04:20.212Z,16
2023-02-17T13:05:20.807Z,16
2023-02-17T13:06:21.405Z,16
2023-02-17T13:07:22.027Z,16
2023-02-17T13:08:22.696Z,16
2023-02-17T13:09:23.294Z,16
2023-02-17T13:10:23.901Z,16
2023-02-17T13:11:24.503Z,16
2023-02-17T13:12:25.099Z,16
2023-02-17T13:13:25.697Z,16
2023-02-17T13:14:26.293Z,16
2023-02-17T13:15:26.911Z,16
2023-02-17T13:16:27.507Z,16
2023-02-17T13:17:28.119Z,16
2023-02-17T13:18:28.783Z,16
2023-02-17T13:19:29.380Z,16
2023-02-17T13:20:29.985Z,16
2023-02-17T13:21:30.593Z,16
2023-02-17T13:22:31.195Z,16
2023-02-17T13:23:31.792Z,16
2023-02-17T13:24:32.397Z,16
2023-02-17T13:25:32.999Z,16
2023-02-17T13:26:33.610Z,16
2023-02-17T13:27:34.213Z,16
2023-02-17T13:28:34.808Z,16
2023-02-17T13:29:35.410Z,16
2023-02-17T13:30:36.021Z,16
2023-02-17T13:31:37.704Z,16
2023-02-17T13:32:38.220Z,16
2023-02-17T13:33:39.671Z,16
2023-02-17T13:34:40.327Z,16
2023-02-17T13:35:41.009Z,16
2023-02-17T13:36:41.657Z,16
2023-02-17T13:37:42.269Z,16
2023-02-17T13:38:42.875Z,16
2023-02-17T13:39:43.471Z,16
2023-02-17T13:40:44.115Z,16
2023-02-17T13:41:44.715Z,12
2023-02-17T13:42:45.378Z,16
2023-02-17T13:43:46.044Z,16
2023-02-17T13:44:47.490Z,16
2023-02-17T13:45:48.118Z,16
2023-02-17T13:46:48.710Z,16
2023-02-17T13:47:50.179Z,16
2023-02-17T13:48:50.769Z,16
2023-02-17T13:49:51.364Z,16
2023-02-17T13:50:51.959Z,16
2023-02-17T13:51:52.565Z,16
2023-02-17T13:52:53.176Z,12
2023-02-17T13:53:53.831Z,12
2023-02-17T13:54:54.433Z,12
2023-02-17T13:55:55.036Z,12
2023-02-17T13:56:55.646Z,12
2023-02-17T13:57:56.237Z,12
2023-02-17T13:58:56.823Z,16
2023-02-17T13:59:57.418Z,16
2023-02-17T14:00:58.014Z,16
2023-02-17T14:01:58.632Z,12
2023-02-17T14:02:59.250Z,16
2023-02-17T14:03:59.891Z,16
2023-02-17T14:05:00.536Z,16
2023-02-17T14:06:01.159Z,16
2023-02-17T14:07:01.762Z,16
2023-02-17T14:08:02.365Z,16
2023-02-17T14:09:02.955Z,16
2023-02-17T14:10:03.563Z,16
2023-02-17T14:11:04.158Z,16
2023-02-17T14:12:04.753Z,12
2023-02-17T14:13:05.349Z,12
2023-02-17T14:14:05.958Z,16
2023-02-17T14:15:06.559Z,16
2023-02-17T14:16:08.389Z,12
2023-02-17T14:17:09.225Z,16
2023-02-17T14:18:09.816Z,20
2023-02-17T14:19:10.443Z,16
2023-02-17T14:20:11.027Z,16
2023-02-17T14:21:11.623Z,20
2023-02-17T14:22:12.229Z,20
2023-02-17T14:23:12.851Z,24
2023-02-17T14:24:13.440Z,24
2023-02-17T14:25:14.115Z,24
2023-02-17T14:26:14.756Z,28
2023-02-17T14:27:15.339Z,24
2023-02-17T14:28:15.957Z,28
2023-02-17T14:29:16.576Z,32
2023-02-17T14:30:17.218Z,32
2023-02-17T14:31:17.918Z,32
2023-02-17T14:32:18.606Z,36
2023-02-17T14:33:19.226Z,36
2023-02-17T14:34:19.817Z,32
2023-02-17T14:35:20.473Z,32
2023-02-17T14:36:21.091Z,36
2023-02-17T14:37:21.686Z,36
2023-02-17T14:38:22.293Z,36
2023-02-17T14:39:22.986Z,36
2023-02-17T14:40:23.581Z,36
2023-02-17T14:41:24.181Z,36
2023-02-17T14:42:24.773Z,40
2023-02-17T14:43:25.378Z,40
2023-02-17T14:44:25.979Z,36
2023-02-17T14:45:26.580Z,36
2023-02-17T14:46:27.237Z,36
2023-02-17T14:47:27.929Z,36
2023-02-17T14:48:28.535Z,36
2023-02-17T14:49:29.192Z,40
2023-02-17T14:50:29.798Z,40
2023-02-17T14:51:30.400Z,36
2023-02-17T14:52:30.994Z,36
2023-02-17T14:53:31.600Z,36
2023-02-17T14:54:32.216Z,36
2023-02-17T14:55:32.882Z,36
2023-02-17T14:56:33.479Z,36
2023-02-17T14:57:34.075Z,36
2023-02-17T14:58:34.680Z,36
2023-02-17T14:59:35.280Z,36
2023-02-17T15:00:35.872Z,36
2023-02-17T15:01:37.344Z,36
2023-02-17T15:02:37.980Z,32
2023-02-17T15:03:38.573Z,36
2023-02-17T15:04:39.199Z,36
2023-02-17T15:05:39.781Z,36
2023-02-17T15:06:40.454Z,36
2023-02-17T15:07:41.053Z,36
2023-02-17T15:08:41.652Z,36
2023-02-17T15:09:42.256Z,36
2023-02-17T15:10:42.842Z,36
2023-02-17T15:11:43.449Z,32
2023-02-17T15:12:44.108Z,36
2023-02-17T15:13:44.733Z,32
2023-02-17T15:14:45.343Z,36
2023-02-17T15:15:46.033Z,32
2023-02-17T15:16:46.643Z,36
2023-02-17T15:17:47.254Z,36
2023-02-17T15:18:47.883Z,36
2023-02-17T15:19:48.490Z,32
2023-02-17T15:20:49.084Z,32
2023-02-17T15:21:49.687Z,32
2023-02-17T15:22:50.291Z,32
2023-02-17T15:23:50.888Z,32
2023-02-17T15:24:51.490Z,32
2023-02-17T15:25:52.158Z,28
2023-02-17T15:26:52.759Z,28
2023-02-17T15:27:53.378Z,32
2023-02-17T15:28:54.038Z,32
2023-02-17T15:29:54.643Z,32
2023-02-17T15:30:55.246Z,32
2023-02-17T15:31:55.936Z,28
2023-02-17T15:32:56.631Z,24
2023-02-17T15:33:57.242Z,28
2023-02-17T15:34:57.849Z,28
2023-02-17T15:35:58.446Z,28
2023-02-17T15:36:59.048Z,28
2023-02-17T15:37:59.651Z,28
2023-02-17T15:39:00.252Z,28
2023-02-17T15:40:00.906Z,28
2023-02-17T15:41:01.502Z,28
2023-02-17T15:42:02.107Z,28
2023-02-17T15:43:02.706Z,32
2023-02-17T15:44:03.324Z,32
2023-02-17T15:45:03.920Z,32
2023-02-17T15:46:04.707Z,28
2023-02-17T15:47:06.253Z,32
2023-02-17T15:48:06.852Z,32
2023-02-17T15:49:07.550Z,32
2023-02-17T15:50:08.155Z,36
2023-02-17T15:51:08.759Z,32
2023-02-17T15:52:09.399Z,36
2023-02-17T15:53:10.010Z,32
2023-02-17T15:54:10.607Z,36
2023-02-17T15:55:11.203Z,32
2023-02-17T15:56:11.810Z,36
2023-02-17T15:57:12.481Z,36
2023-02-17T15:58:13.088Z,36
2023-02-17T15:59:13.688Z,36
2023-02-17T16:00:15.148Z,36
2023-02-17T16:01:15.804Z,40
2023-02-17T16:02:16.412Z,40
2023-02-17T16:03:17.053Z,36